Terminal Aerodrome Forecast
Issued by NWS

Home | Current Version | Previous Version | Text Only | Print | Product List | Glossary On
Versions: 1 2 3 4 5 6 7 8 9 10 11 12 13
000
FTUS45 KTFX 280520
TAFHVR
TAF
KHVR 280520Z 2806/2906 VRB05KT P6SM BKN100
     FM282100 35015KT P6SM VCTS SCT040CB BKN060 PROB30 2821/2824
      VRB25G35KT 4SM -TSRA BKN030CB
     FM290000 04008KT P6SM VCSH SCT050 OVC070=

USA.gov is the U.S. government's official web portal to all federal, state and local government web resources and services.